Terminal Aerodrome Forecast
Issued by NWS

Home | Current Version | Previous Version | Text Only | Print | Product List | Glossary Off
Versions: 1 2 3 4 5 6 7 8 9 10 11 12 13 14 15 16

000
FTUS43 KOAX 181100 CCA
TAFCDR
TAF COR
KCDR 181148Z 1812/1912 20005KT P6SM OVC250
     FM181600 22019G30KT P6SM SCT070 OVC250
     FM190200 24013KT P6SM VCTS BKN100CB
     FM190800 35007KT P6SM OVC100=

USA.gov is the U.S. government's official web portal to all federal, state and local government web resources and services.